Diamond, Oregon
Current Conditions -  °F | °C
As of 4:53 PM on Tuesday 21 Oct 2014 (Local Time) from KBNO Reporting Station
Clear Clear  
Wind Chill: 12°   Ceiling: Unl
Heat Index: 12°   Visibility: 10mi
Dew Point:   Wind: 7mph
Humidity: 45%   Direction: 190°S
Pressure: 30.05"   Gusts: NA
Location:  43.01°N, 118.66°W
Report Text: KBNO 212353Z AUTO 19006KT 10SM CLR 12/00 A3005 RMK AO2 SLP175 T01170000 10128 20078 56008
Loading
Personal Weather Stations






























Interactive Weather Map
Tropical Storm Tracking
New forecast layout! Learn more

10-Day Weather Forecast

Advertisements
Track Severe Weather on mobile